sensor_id;sensor_type;location;lat;lon;timestamp;temperature;humidity
43858;DHT22;29507;51.284;5.758;2023-04-19T00:01:28;9.70;99.90
43858;DHT22;29507;51.284;5.758;2023-04-19T00:03:54;9.80;99.90
43858;DHT22;29507;51.284;5.758;2023-04-19T00:06:20;9.90;99.90
43858;DHT22;29507;51.284;5.758;2023-04-19T00:08:45;9.90;99.90
43858;DHT22;29507;51.284;5.758;2023-04-19T00:11:11;10.00;99.90
43858;DHT22;29507;51.284;5.758;2023-04-19T00:13:37;9.90;99.90
43858;DHT22;29507;51.284;5.758;2023-04-19T00:16:02;9.90;99.90
43858;DHT22;29507;51.284;5.758;2023-04-19T00:18:28;10.00;99.90
43858;DHT22;29507;51.284;5.758;2023-04-19T00:20:54;10.00;99.90
43858;DHT22;29507;51.284;5.758;2023-04-19T00:23:20;10.10;99.90
43858;DHT22;29507;51.284;5.758;2023-04-19T00:25:47;10.20;99.90
43858;DHT22;29507;51.284;5.758;2023-04-19T00:28:13;10.10;99.90
43858;DHT22;29507;51.284;5.758;2023-04-19T00:30:39;10.10;99.90
43858;DHT22;29507;51.284;5.758;2023-04-19T00:33:04;10.10;99.90
43858;DHT22;29507;51.284;5.758;2023-04-19T00:35:30;10.10;99.90
43858;DHT22;29507;51.284;5.758;2023-04-19T00:37:55;10.20;99.90
43858;DHT22;29507;51.284;5.758;2023-04-19T00:40:21;10.20;99.90
43858;DHT22;29507;51.284;5.758;2023-04-19T00:42:47;10.20;99.90
43858;DHT22;29507;51.284;5.758;2023-04-19T00:45:13;10.30;99.90
43858;DHT22;29507;51.284;5.758;2023-04-19T00:47:38;10.30;99.90
43858;DHT22;29507;51.284;5.758;2023-04-19T00:50:05;10.30;99.90
43858;DHT22;29507;51.284;5.758;2023-04-19T00:52:32;10.30;99.90
43858;DHT22;29507;51.284;5.758;2023-04-19T00:54:58;10.30;99.90
43858;DHT22;29507;51.284;5.758;2023-04-19T00:57:24;10.30;99.90
43858;DHT22;29507;51.284;5.758;2023-04-19T00:59:50;10.30;99.90
43858;DHT22;29507;51.284;5.758;2023-04-19T01:02:16;10.30;99.90
43858;DHT22;29507;51.284;5.758;2023-04-19T01:04:43;10.30;99.90
43858;DHT22;29507;51.284;5.758;2023-04-19T01:07:09;10.30;99.90
43858;DHT22;29507;51.284;5.758;2023-04-19T01:09:34;10.20;99.90
43858;DHT22;29507;51.284;5.758;2023-04-19T01:12:04;10.30;99.90
43858;DHT22;29507;51.284;5.758;2023-04-19T01:14:29;10.30;99.90
43858;DHT22;29507;51.284;5.758;2023-04-19T01:16:56;10.20;99.90
43858;DHT22;29507;51.284;5.758;2023-04-19T01:19:21;10.30;99.90
43858;DHT22;29507;51.284;5.758;2023-04-19T01:21:47;10.20;99.90
43858;DHT22;29507;51.284;5.758;2023-04-19T01:24:13;10.20;99.90
43858;DHT22;29507;51.284;5.758;2023-04-19T01:26:38;10.20;99.90
43858;DHT22;29507;51.284;5.758;2023-04-19T01:29:04;10.10;99.90
43858;DHT22;29507;51.284;5.758;2023-04-19T01:31:30;10.10;99.90
43858;DHT22;29507;51.284;5.758;2023-04-19T01:33:55;10.00;99.90
43858;DHT22;29507;51.284;5.758;2023-04-19T01:36:21;10.10;99.90
43858;DHT22;29507;51.284;5.758;2023-04-19T01:38:46;10.10;99.90
43858;DHT22;29507;51.284;5.758;2023-04-19T01:41:12;10.10;99.90
43858;DHT22;29507;51.284;5.758;2023-04-19T01:43:38;10.10;99.90
43858;DHT22;29507;51.284;5.758;2023-04-19T01:46:03;10.10;99.90
43858;DHT22;29507;51.284;5.758;2023-04-19T01:48:29;10.10;99.90
43858;DHT22;29507;51.284;5.758;2023-04-19T01:50:55;10.10;99.90
43858;DHT22;29507;51.284;5.758;2023-04-19T01:53:21;10.10;99.90
43858;DHT22;29507;51.284;5.758;2023-04-19T01:55:46;10.10;99.90
43858;DHT22;29507;51.284;5.758;2023-04-19T01:58:12;10.10;99.90
43858;DHT22;29507;51.284;5.758;2023-04-19T02:00:37;10.10;99.90
43858;DHT22;29507;51.284;5.758;2023-04-19T02:03:03;10.10;99.90
43858;DHT22;29507;51.284;5.758;2023-04-19T02:05:28;10.10;99.90
43858;DHT22;29507;51.284;5.758;2023-04-19T02:07:54;10.10;99.90
43858;DHT22;29507;51.284;5.758;2023-04-19T02:10:20;10.10;99.90
43858;DHT22;29507;51.284;5.758;2023-04-19T02:12:45;10.10;99.90
43858;DHT22;29507;51.284;5.758;2023-04-19T02:15:11;10.00;99.90
43858;DHT22;29507;51.284;5.758;2023-04-19T02:17:36;10.10;99.90
43858;DHT22;29507;51.284;5.758;2023-04-19T02:20:03;10.00;99.90
43858;DHT22;29507;51.284;5.758;2023-04-19T02:22:29;10.00;99.90
43858;DHT22;29507;51.284;5.758;2023-04-19T02:24:55;9.90;99.90
43858;DHT22;29507;51.284;5.758;2023-04-19T02:27:20;9.90;99.90
43858;DHT22;29507;51.284;5.758;2023-04-19T02:29:46;9.90;99.90
43858;DHT22;29507;51.284;5.758;2023-04-19T02:32:12;9.90;99.90
43858;DHT22;29507;51.284;5.758;2023-04-19T02:34:38;9.90;99.90
43858;DHT22;29507;51.284;5.758;2023-04-19T02:37:03;9.90;99.90
43858;DHT22;29507;51.284;5.758;2023-04-19T02:39:29;9.80;99.90
43858;DHT22;29507;51.284;5.758;2023-04-19T02:41:55;9.70;99.90
43858;DHT22;29507;51.284;5.758;2023-04-19T02:44:21;9.60;99.90
43858;DHT22;29507;51.284;5.758;2023-04-19T02:46:50;9.50;99.90
43858;DHT22;29507;51.284;5.758;2023-04-19T02:49:17;9.40;99.90
43858;DHT22;29507;51.284;5.758;2023-04-19T02:51:42;9.30;99.90
43858;DHT22;29507;51.284;5.758;2023-04-19T02:54:08;9.10;99.90
43858;DHT22;29507;51.284;5.758;2023-04-19T02:56:34;9.00;99.90
43858;DHT22;29507;51.284;5.758;2023-04-19T02:59:00;8.90;99.90
43858;DHT22;29507;51.284;5.758;2023-04-19T03:01:26;8.80;99.90
43858;DHT22;29507;51.284;5.758;2023-04-19T03:04:30;8.70;99.90
43858;DHT22;29507;51.284;5.758;2023-04-19T03:07:05;8.70;99.90
43858;DHT22;29507;51.284;5.758;2023-04-19T03:09:33;8.60;99.90
43858;DHT22;29507;51.284;5.758;2023-04-19T03:12:32;8.60;99.90
43858;DHT22;29507;51.284;5.758;2023-04-19T03:15:12;8.50;99.90
43858;DHT22;29507;51.284;5.758;2023-04-19T03:20:42;8.50;99.90
43858;DHT22;29507;51.284;5.758;2023-04-19T03:23:13;8.40;99.90
43858;DHT22;29507;51.284;5.758;2023-04-19T03:25:51;8.40;99.90
43858;DHT22;29507;51.284;5.758;2023-04-19T03:28:36;8.30;99.90
43858;DHT22;29507;51.284;5.758;2023-04-19T03:31:23;8.30;99.90
43858;DHT22;29507;51.284;5.758;2023-04-19T03:34:28;8.30;99.90
43858;DHT22;29507;51.284;5.758;2023-04-19T03:39:48;8.10;99.90
43858;DHT22;29507;51.284;5.758;2023-04-19T03:42:29;8.10;99.90
43858;DHT22;29507;51.284;5.758;2023-04-19T03:45:16;8.10;99.90
43858;DHT22;29507;51.284;5.758;2023-04-19T03:47:47;8.20;99.90
43858;DHT22;29507;51.284;5.758;2023-04-19T03:50:16;8.20;99.90
43858;DHT22;29507;51.284;5.758;2023-04-19T03:52:48;8.30;99.90
43858;DHT22;29507;51.284;5.758;2023-04-19T03:55:23;8.50;99.90
43858;DHT22;29507;51.284;5.758;2023-04-19T03:57:57;8.70;99.90
43858;DHT22;29507;51.284;5.758;2023-04-19T04:01:10;8.80;99.90
43858;DHT22;29507;51.284;5.758;2023-04-19T04:03:58;8.90;99.90
43858;DHT22;29507;51.284;5.758;2023-04-19T04:06:23;8.90;99.90
43858;DHT22;29507;51.284;5.758;2023-04-19T04:08:51;8.90;99.90
43858;DHT22;29507;51.284;5.758;2023-04-19T04:11:35;9.00;99.90
43858;DHT22;29507;51.284;5.758;2023-04-19T04:14:09;9.10;99.90
43858;DHT22;29507;51.284;5.758;2023-04-19T04:16:38;9.10;99.90
43858;DHT22;29507;51.284;5.758;2023-04-19T04:19:07;9.20;99.90
43858;DHT22;29507;51.284;5.758;2023-04-19T04:21:33;9.30;99.90
43858;DHT22;29507;51.284;5.758;2023-04-19T04:23:59;9.40;99.90
43858;DHT22;29507;51.284;5.758;2023-04-19T04:26:29;9.50;99.90
43858;DHT22;29507;51.284;5.758;2023-04-19T04:28:57;9.50;99.90
43858;DHT22;29507;51.284;5.758;2023-04-19T04:31:28;9.60;99.90
43858;DHT22;29507;51.284;5.758;2023-04-19T04:34:00;9.60;99.90
43858;DHT22;29507;51.284;5.758;2023-04-19T04:36:28;9.60;99.90
43858;DHT22;29507;51.284;5.758;2023-04-19T04:38:58;9.60;99.90
43858;DHT22;29507;51.284;5.758;2023-04-19T04:41:29;9.70;99.90
43858;DHT22;29507;51.284;5.758;2023-04-19T04:43:57;9.60;99.90
43858;DHT22;29507;51.284;5.758;2023-04-19T04:46:25;9.50;99.90
43858;DHT22;29507;51.284;5.758;2023-04-19T04:48:57;9.50;99.90
43858;DHT22;29507;51.284;5.758;2023-04-19T04:51:33;9.40;99.90
43858;DHT22;29507;51.284;5.758;2023-04-19T04:54:02;9.30;99.90
43858;DHT22;29507;51.284;5.758;2023-04-19T04:56:34;9.40;99.90
43858;DHT22;29507;51.284;5.758;2023-04-19T04:59:19;9.40;99.90
43858;DHT22;29507;51.284;5.758;2023-04-19T05:01:47;9.40;99.90
43858;DHT22;29507;51.284;5.758;2023-04-19T05:04:16;9.50;99.90
43858;DHT22;29507;51.284;5.758;2023-04-19T05:06:42;9.60;99.90
43858;DHT22;29507;51.284;5.758;2023-04-19T05:09:12;9.60;99.90
43858;DHT22;29507;51.284;5.758;2023-04-19T05:12:26;9.70;99.90
43858;DHT22;29507;51.284;5.758;2023-04-19T05:15:29;9.80;99.90
43858;DHT22;29507;51.284;5.758;2023-04-19T05:18:01;9.70;99.90
43858;DHT22;29507;51.284;5.758;2023-04-19T05:20:28;9.70;99.90
43858;DHT22;29507;51.284;5.758;2023-04-19T05:23:01;9.70;99.90
43858;DHT22;29507;51.284;5.758;2023-04-19T05:25:31;9.80;99.90
43858;DHT22;29507;51.284;5.758;2023-04-19T05:27:59;9.80;99.90
43858;DHT22;29507;51.284;5.758;2023-04-19T05:30:34;9.80;99.90
43858;DHT22;29507;51.284;5.758;2023-04-19T05:33:01;9.80;99.90
43858;DHT22;29507;51.284;5.758;2023-04-19T05:35:29;9.80;99.90
43858;DHT22;29507;51.284;5.758;2023-04-19T05:37:58;9.90;99.90
43858;DHT22;29507;51.284;5.758;2023-04-19T05:40:30;9.90;99.90
43858;DHT22;29507;51.284;5.758;2023-04-19T05:43:02;10.00;99.90
43858;DHT22;29507;51.284;5.758;2023-04-19T05:45:28;10.10;99.90
43858;DHT22;29507;51.284;5.758;2023-04-19T05:48:04;10.20;99.90
43858;DHT22;29507;51.284;5.758;2023-04-19T05:50:34;10.10;99.90
43858;DHT22;29507;51.284;5.758;2023-04-19T05:53:25;10.00;99.90
43858;DHT22;29507;51.284;5.758;2023-04-19T05:56:06;10.00;99.90
43858;DHT22;29507;51.284;5.758;2023-04-19T05:58:42;9.90;99.90
43858;DHT22;29507;51.284;5.758;2023-04-19T06:01:31;9.90;99.90
43858;DHT22;29507;51.284;5.758;2023-04-19T06:03:57;9.90;99.90
43858;DHT22;29507;51.284;5.758;2023-04-19T06:06:41;9.90;99.90
43858;DHT22;29507;51.284;5.758;2023-04-19T06:09:18;9.90;99.90
43858;DHT22;29507;51.284;5.758;2023-04-19T06:11:53;9.80;99.90
43858;DHT22;29507;51.284;5.758;2023-04-19T06:14:31;9.90;99.90
43858;DHT22;29507;51.284;5.758;2023-04-19T06:19:51;10.00;99.90
43858;DHT22;29507;51.284;5.758;2023-04-19T06:22:43;9.90;99.90
43858;DHT22;29507;51.284;5.758;2023-04-19T06:25:23;10.00;99.90
43858;DHT22;29507;51.284;5.758;2023-04-19T06:28:00;10.10;99.90
43858;DHT22;29507;51.284;5.758;2023-04-19T06:33:19;10.10;99.90
43858;DHT22;29507;51.284;5.758;2023-04-19T06:35:47;10.20;99.90
43858;DHT22;29507;51.284;5.758;2023-04-19T06:38:20;10.30;99.90
43858;DHT22;29507;51.284;5.758;2023-04-19T06:40:46;10.40;99.90
43858;DHT22;29507;51.284;5.758;2023-04-19T06:43:37;10.50;99.90
43858;DHT22;29507;51.284;5.758;2023-04-19T06:46:05;10.50;99.90
43858;DHT22;29507;51.284;5.758;2023-04-19T06:48:33;10.60;99.90
43858;DHT22;29507;51.284;5.758;2023-04-19T06:50:59;10.60;99.90
43858;DHT22;29507;51.284;5.758;2023-04-19T06:53:38;10.70;99.90
43858;DHT22;29507;51.284;5.758;2023-04-19T06:58:52;12.00;99.90
43858;DHT22;29507;51.284;5.758;2023-04-19T07:01:39;12.90;99.90
43858;DHT22;29507;51.284;5.758;2023-04-19T07:04:20;13.50;99.90
43858;DHT22;29507;51.284;5.758;2023-04-19T07:06:53;13.90;99.90
43858;DHT22;29507;51.284;5.758;2023-04-19T07:09:19;14.00;99.90
43858;DHT22;29507;51.284;5.758;2023-04-19T07:11:47;14.10;99.90
43858;DHT22;29507;51.284;5.758;2023-04-19T07:14:18;14.30;99.90
43858;DHT22;29507;51.284;5.758;2023-04-19T07:17:05;14.40;99.90
43858;DHT22;29507;51.284;5.758;2023-04-19T07:26:45;14.90;97.00
43858;DHT22;29507;51.284;5.758;2023-04-19T07:32:38;15.30;95.20
43858;DHT22;29507;51.284;5.758;2023-04-19T07:37:56;15.30;93.40
43858;DHT22;29507;51.284;5.758;2023-04-19T07:40:22;15.50;93.30
43858;DHT22;29507;51.284;5.758;2023-04-19T07:42:47;15.80;92.50
43858;DHT22;29507;51.284;5.758;2023-04-19T07:45:13;15.90;91.40
43858;DHT22;29507;51.284;5.758;2023-04-19T07:47:39;15.70;91.40
43858;DHT22;29507;51.284;5.758;2023-04-19T07:50:05;15.60;91.00
43858;DHT22;29507;51.284;5.758;2023-04-19T07:52:32;15.70;91.00
43858;DHT22;29507;51.284;5.758;2023-04-19T07:54:57;16.00;88.50
43858;DHT22;29507;51.284;5.758;2023-04-19T07:57:23;15.80;88.80
43858;DHT22;29507;51.284;5.758;2023-04-19T07:59:48;15.70;88.20
43858;DHT22;29507;51.284;5.758;2023-04-19T08:02:14;15.80;89.10
43858;DHT22;29507;51.284;5.758;2023-04-19T08:04:41;16.00;86.90
43858;DHT22;29507;51.284;5.758;2023-04-19T08:07:07;16.00;86.90
43858;DHT22;29507;51.284;5.758;2023-04-19T08:09:33;16.00;86.20
43858;DHT22;29507;51.284;5.758;2023-04-19T08:11:59;16.10;86.30
43858;DHT22;29507;51.284;5.758;2023-04-19T08:14:25;16.10;84.30
43858;DHT22;29507;51.284;5.758;2023-04-19T08:16:51;16.10;84.10
43858;DHT22;29507;51.284;5.758;2023-04-19T08:19:17;16.20;81.90
43858;DHT22;29507;51.284;5.758;2023-04-19T08:21:42;16.00;82.10
43858;DHT22;29507;51.284;5.758;2023-04-19T08:24:08;16.00;82.90
43858;DHT22;29507;51.284;5.758;2023-04-19T08:26:33;16.00;83.10
43858;DHT22;29507;51.284;5.758;2023-04-19T08:28:59;16.30;81.70
43858;DHT22;29507;51.284;5.758;2023-04-19T08:31:25;16.40;82.50
43858;DHT22;29507;51.284;5.758;2023-04-19T08:33:50;16.70;82.10
43858;DHT22;29507;51.284;5.758;2023-04-19T08:36:16;17.00;82.30
43858;DHT22;29507;51.284;5.758;2023-04-19T08:38:42;17.10;81.60
43858;DHT22;29507;51.284;5.758;2023-04-19T08:41:10;17.10;79.60
43858;DHT22;29507;51.284;5.758;2023-04-19T08:43:36;17.20;79.70
43858;DHT22;29507;51.284;5.758;2023-04-19T08:46:02;17.20;78.50
43858;DHT22;29507;51.284;5.758;2023-04-19T08:48:29;17.20;77.40
43858;DHT22;29507;51.284;5.758;2023-04-19T08:50:56;17.20;77.90
43858;DHT22;29507;51.284;5.758;2023-04-19T08:53:27;17.20;77.20
43858;DHT22;29507;51.284;5.758;2023-04-19T08:55:52;17.20;76.80
43858;DHT22;29507;51.284;5.758;2023-04-19T08:58:24;17.40;76.90
43858;DHT22;29507;51.284;5.758;2023-04-19T09:00:50;17.60;76.00
43858;DHT22;29507;51.284;5.758;2023-04-19T09:03:16;17.70;75.90
43858;DHT22;29507;51.284;5.758;2023-04-19T09:05:41;17.90;76.10
43858;DHT22;29507;51.284;5.758;2023-04-19T09:08:25;18.10;75.30
43858;DHT22;29507;51.284;5.758;2023-04-19T09:10:58;18.10;74.30
43858;DHT22;29507;51.284;5.758;2023-04-19T09:13:27;18.00;74.80
43858;DHT22;29507;51.284;5.758;2023-04-19T09:15:53;18.00;72.60
43858;DHT22;29507;51.284;5.758;2023-04-19T09:18:22;18.10;74.10
43858;DHT22;29507;51.284;5.758;2023-04-19T09:20:49;18.30;73.40
43858;DHT22;29507;51.284;5.758;2023-04-19T09:23:17;18.30;72.40
43858;DHT22;29507;51.284;5.758;2023-04-19T09:26:00;18.20;70.70
43858;DHT22;29507;51.284;5.758;2023-04-19T09:28:26;18.00;70.30
43858;DHT22;29507;51.284;5.758;2023-04-19T09:30:53;18.00;72.00
43858;DHT22;29507;51.284;5.758;2023-04-19T09:33:36;18.00;71.60
43858;DHT22;29507;51.284;5.758;2023-04-19T09:36:06;18.10;70.60
43858;DHT22;29507;51.284;5.758;2023-04-19T09:38:46;18.10;70.90
43858;DHT22;29507;51.284;5.758;2023-04-19T09:41:12;18.00;69.40
43858;DHT22;29507;51.284;5.758;2023-04-19T09:43:38;18.10;69.90
43858;DHT22;29507;51.284;5.758;2023-04-19T09:46:04;18.20;69.60
43858;DHT22;29507;51.284;5.758;2023-04-19T09:48:29;18.20;68.20
43858;DHT22;29507;51.284;5.758;2023-04-19T09:50:59;17.90;70.70
43858;DHT22;29507;51.284;5.758;2023-04-19T09:53:27;17.90;69.00
43858;DHT22;29507;51.284;5.758;2023-04-19T09:55:53;18.00;69.10
43858;DHT22;29507;51.284;5.758;2023-04-19T09:58:20;18.30;65.60
43858;DHT22;29507;51.284;5.758;2023-04-19T10:00:47;18.20;65.60
43858;DHT22;29507;51.284;5.758;2023-04-19T10:03:17;18.10;65.50
43858;DHT22;29507;51.284;5.758;2023-04-19T10:05:43;18.10;64.90
43858;DHT22;29507;51.284;5.758;2023-04-19T10:08:11;18.30;64.40
43858;DHT22;29507;51.284;5.758;2023-04-19T10:10:39;18.40;65.40
43858;DHT22;29507;51.284;5.758;2023-04-19T10:13:08;18.50;64.80
43858;DHT22;29507;51.284;5.758;2023-04-19T10:15:36;18.70;63.20
43858;DHT22;29507;51.284;5.758;2023-04-19T10:18:05;18.70;60.40
43858;DHT22;29507;51.284;5.758;2023-04-19T10:23:02;18.60;61.60
43858;DHT22;29507;51.284;5.758;2023-04-19T10:25:31;18.70;60.90
43858;DHT22;29507;51.284;5.758;2023-04-19T10:27:57;19.00;62.30
43858;DHT22;29507;51.284;5.758;2023-04-19T10:30:23;19.10;61.40
43858;DHT22;29507;51.284;5.758;2023-04-19T10:32:56;19.30;58.70
43858;DHT22;29507;51.284;5.758;2023-04-19T10:38:07;19.10;60.70
43858;DHT22;29507;51.284;5.758;2023-04-19T10:43:18;19.30;59.90
43858;DHT22;29507;51.284;5.758;2023-04-19T10:45:44;19.20;59.00
43858;DHT22;29507;51.284;5.758;2023-04-19T10:51:16;19.50;59.30
43858;DHT22;29507;51.284;5.758;2023-04-19T10:56:09;19.70;55.70
43858;DHT22;29507;51.284;5.758;2023-04-19T10:59:13;19.50;54.90
43858;DHT22;29507;51.284;5.758;2023-04-19T11:01:50;19.60;55.30
43858;DHT22;29507;51.284;5.758;2023-04-19T11:04:20;19.50;53.30
43858;DHT22;29507;51.284;5.758;2023-04-19T11:09:36;19.60;53.10
43858;DHT22;29507;51.284;5.758;2023-04-19T11:12:13;19.70;53.30
43858;DHT22;29507;51.284;5.758;2023-04-19T11:14:40;19.80;54.10
43858;DHT22;29507;51.284;5.758;2023-04-19T11:17:23;19.90;54.30
43858;DHT22;29507;51.284;5.758;2023-04-19T11:20:02;19.80;53.60
43858;DHT22;29507;51.284;5.758;2023-04-19T11:22:35;20.10;51.80
43858;DHT22;29507;51.284;5.758;2023-04-19T11:27:33;20.00;52.20
43858;DHT22;29507;51.284;5.758;2023-04-19T11:30:11;20.00;52.30
43858;DHT22;29507;51.284;5.758;2023-04-19T11:32:37;20.10;52.40
43858;DHT22;29507;51.284;5.758;2023-04-19T11:35:09;20.50;53.10
43858;DHT22;29507;51.284;5.758;2023-04-19T11:37:35;20.80;52.40
43858;DHT22;29507;51.284;5.758;2023-04-19T11:40:01;20.80;51.30
43858;DHT22;29507;51.284;5.758;2023-04-19T11:42:29;20.50;51.30
43858;DHT22;29507;51.284;5.758;2023-04-19T11:44:55;20.10;51.00
43858;DHT22;29507;51.284;5.758;2023-04-19T11:47:22;20.20;50.40
43858;DHT22;29507;51.284;5.758;2023-04-19T11:49:48;20.20;50.20
43858;DHT22;29507;51.284;5.758;2023-04-19T11:52:25;20.40;52.80
43858;DHT22;29507;51.284;5.758;2023-04-19T11:54:51;20.40;51.20
43858;DHT22;29507;51.284;5.758;2023-04-19T11:57:28;20.60;52.00
43858;DHT22;29507;51.284;5.758;2023-04-19T12:00:07;20.80;50.60
43858;DHT22;29507;51.284;5.758;2023-04-19T12:02:42;20.50;51.00
43858;DHT22;29507;51.284;5.758;2023-04-19T12:05:08;20.40;50.50
43858;DHT22;29507;51.284;5.758;2023-04-19T12:07:35;20.50;50.40
43858;DHT22;29507;51.284;5.758;2023-04-19T12:10:11;20.70;51.10
43858;DHT22;29507;51.284;5.758;2023-04-19T12:12:37;21.00;50.60
43858;DHT22;29507;51.284;5.758;2023-04-19T12:15:04;20.90;50.40
43858;DHT22;29507;51.284;5.758;2023-04-19T12:17:30;21.00;49.00
43858;DHT22;29507;51.284;5.758;2023-04-19T12:19:56;20.80;48.20
43858;DHT22;29507;51.284;5.758;2023-04-19T12:22:22;20.70;50.00
43858;DHT22;29507;51.284;5.758;2023-04-19T12:24:51;20.60;49.10
43858;DHT22;29507;51.284;5.758;2023-04-19T12:27:17;20.80;50.30
43858;DHT22;29507;51.284;5.758;2023-04-19T12:29:43;21.20;49.40
43858;DHT22;29507;51.284;5.758;2023-04-19T12:32:09;21.30;49.80
43858;DHT22;29507;51.284;5.758;2023-04-19T12:34:35;21.30;48.90
43858;DHT22;29507;51.284;5.758;2023-04-19T12:37:01;21.30;48.70
43858;DHT22;29507;51.284;5.758;2023-04-19T12:39:29;21.60;47.60
43858;DHT22;29507;51.284;5.758;2023-04-19T12:41:55;21.20;45.80
43858;DHT22;29507;51.284;5.758;2023-04-19T12:44:21;21.30;47.20
43858;DHT22;29507;51.284;5.758;2023-04-19T12:46:48;21.50;47.30
43858;DHT22;29507;51.284;5.758;2023-04-19T12:49:13;21.70;47.00
43858;DHT22;29507;51.284;5.758;2023-04-19T12:51:39;21.80;46.70
43858;DHT22;29507;51.284;5.758;2023-04-19T12:54:06;21.70;46.40
43858;DHT22;29507;51.284;5.758;2023-04-19T12:56:32;21.50;45.80
43858;DHT22;29507;51.284;5.758;2023-04-19T12:58:58;21.70;45.60
43858;DHT22;29507;51.284;5.758;2023-04-19T13:01:24;21.70;46.10
43858;DHT22;29507;51.284;5.758;2023-04-19T13:03:49;22.10;46.40
43858;DHT22;29507;51.284;5.758;2023-04-19T13:06:15;22.60;45.70
43858;DHT22;29507;51.284;5.758;2023-04-19T13:08:41;22.30;45.00
43858;DHT22;29507;51.284;5.758;2023-04-19T13:11:07;22.10;44.80
43858;DHT22;29507;51.284;5.758;2023-04-19T13:13:33;21.90;44.80
43858;DHT22;29507;51.284;5.758;2023-04-19T13:15:59;22.10;44.90
43858;DHT22;29507;51.284;5.758;2023-04-19T13:18:25;22.30;45.60
43858;DHT22;29507;51.284;5.758;2023-04-19T13:20:50;22.40;45.10
43858;DHT22;29507;51.284;5.758;2023-04-19T13:23:18;22.50;44.20
43858;DHT22;29507;51.284;5.758;2023-04-19T13:25:44;22.20;45.10
43858;DHT22;29507;51.284;5.758;2023-04-19T13:28:09;22.40;46.40
43858;DHT22;29507;51.284;5.758;2023-04-19T13:30:35;22.50;43.70
43858;DHT22;29507;51.284;5.758;2023-04-19T13:33:01;22.30;43.50
43858;DHT22;29507;51.284;5.758;2023-04-19T13:35:26;22.20;44.30
43858;DHT22;29507;51.284;5.758;2023-04-19T13:37:52;22.30;44.30
43858;DHT22;29507;51.284;5.758;2023-04-19T13:40:17;22.50;44.70
43858;DHT22;29507;51.284;5.758;2023-04-19T13:42:43;22.60;44.50
43858;DHT22;29507;51.284;5.758;2023-04-19T13:45:09;23.00;45.20
43858;DHT22;29507;51.284;5.758;2023-04-19T13:47:34;23.10;43.20
43858;DHT22;29507;51.284;5.758;2023-04-19T13:50:00;23.00;44.50
43858;DHT22;29507;51.284;5.758;2023-04-19T13:52:26;22.90;43.90
43858;DHT22;29507;51.284;5.758;2023-04-19T13:54:51;22.90;44.80
43858;DHT22;29507;51.284;5.758;2023-04-19T13:57:17;23.00;44.60
43858;DHT22;29507;51.284;5.758;2023-04-19T13:59:43;22.80;44.80
43858;DHT22;29507;51.284;5.758;2023-04-19T14:02:08;22.80;43.40
43858;DHT22;29507;51.284;5.758;2023-04-19T14:04:34;22.20;44.70
43858;DHT22;29507;51.284;5.758;2023-04-19T14:07:00;22.00;45.60
43858;DHT22;29507;51.284;5.758;2023-04-19T14:09:25;21.80;45.30
43858;DHT22;29507;51.284;5.758;2023-04-19T14:11:52;21.30;45.20
43858;DHT22;29507;51.284;5.758;2023-04-19T14:14:18;21.00;46.60
43858;DHT22;29507;51.284;5.758;2023-04-19T14:16:43;20.90;47.40
43858;DHT22;29507;51.284;5.758;2023-04-19T14:19:09;21.00;47.10
43858;DHT22;29507;51.284;5.758;2023-04-19T14:21:34;21.20;47.30
43858;DHT22;29507;51.284;5.758;2023-04-19T14:24:00;21.50;46.20
43858;DHT22;29507;51.284;5.758;2023-04-19T14:26:26;21.10;46.30
43858;DHT22;29507;51.284;5.758;2023-04-19T14:28:51;20.90;48.00
43858;DHT22;29507;51.284;5.758;2023-04-19T14:31:17;21.00;47.20
43858;DHT22;29507;51.284;5.758;2023-04-19T14:33:43;20.60;47.60
43858;DHT22;29507;51.284;5.758;2023-04-19T14:36:08;20.30;47.90
43858;DHT22;29507;51.284;5.758;2023-04-19T14:38:34;20.00;48.50
43858;DHT22;29507;51.284;5.758;2023-04-19T14:41:00;20.10;48.10
43858;DHT22;29507;51.284;5.758;2023-04-19T14:43:25;20.00;48.60
43858;DHT22;29507;51.284;5.758;2023-04-19T14:45:51;19.80;48.10
43858;DHT22;29507;51.284;5.758;2023-04-19T14:48:17;19.60;49.60
43858;DHT22;29507;51.284;5.758;2023-04-19T14:50:43;19.50;48.90
43858;DHT22;29507;51.284;5.758;2023-04-19T14:53:09;19.50;49.80
43858;DHT22;29507;51.284;5.758;2023-04-19T14:55:36;19.40;49.70
43858;DHT22;29507;51.284;5.758;2023-04-19T14:58:02;19.20;48.90
43858;DHT22;29507;51.284;5.758;2023-04-19T15:00:27;18.90;49.30
43858;DHT22;29507;51.284;5.758;2023-04-19T15:02:54;18.70;49.90
43858;DHT22;29507;51.284;5.758;2023-04-19T15:05:21;18.50;50.80
43858;DHT22;29507;51.284;5.758;2023-04-19T15:07:48;18.50;49.50
43858;DHT22;29507;51.284;5.758;2023-04-19T15:10:13;18.20;50.10
43858;DHT22;29507;51.284;5.758;2023-04-19T15:12:39;18.20;50.00
43858;DHT22;29507;51.284;5.758;2023-04-19T15:15:05;18.00;50.60
43858;DHT22;29507;51.284;5.758;2023-04-19T15:17:31;17.70;51.80
43858;DHT22;29507;51.284;5.758;2023-04-19T15:19:58;17.70;52.20
43858;DHT22;29507;51.284;5.758;2023-04-19T15:22:24;17.70;52.40
43858;DHT22;29507;51.284;5.758;2023-04-19T15:24:50;17.80;51.30
43858;DHT22;29507;51.284;5.758;2023-04-19T15:27:15;17.60;52.20
43858;DHT22;29507;51.284;5.758;2023-04-19T15:29:41;17.50;53.20
43858;DHT22;29507;51.284;5.758;2023-04-19T15:32:06;17.50;53.00
43858;DHT22;29507;51.284;5.758;2023-04-19T15:34:32;17.50;52.70
43858;DHT22;29507;51.284;5.758;2023-04-19T15:36:58;17.50;52.10
43858;DHT22;29507;51.284;5.758;2023-04-19T15:39:24;17.40;52.60
43858;DHT22;29507;51.284;5.758;2023-04-19T15:41:50;17.20;54.00
43858;DHT22;29507;51.284;5.758;2023-04-19T15:44:15;17.30;53.60
43858;DHT22;29507;51.284;5.758;2023-04-19T15:46:41;17.20;54.20
43858;DHT22;29507;51.284;5.758;2023-04-19T15:49:06;17.00;53.80
43858;DHT22;29507;51.284;5.758;2023-04-19T15:51:32;16.90;53.00
43858;DHT22;29507;51.284;5.758;2023-04-19T15:53:58;16.80;54.40
43858;DHT22;29507;51.284;5.758;2023-04-19T15:56:23;16.90;53.80
43858;DHT22;29507;51.284;5.758;2023-04-19T15:58:49;17.00;53.80
43858;DHT22;29507;51.284;5.758;2023-04-19T16:01:14;16.80;52.90
43858;DHT22;29507;51.284;5.758;2023-04-19T16:03:40;16.80;53.00
43858;DHT22;29507;51.284;5.758;2023-04-19T16:06:06;16.80;53.90
43858;DHT22;29507;51.284;5.758;2023-04-19T16:08:31;16.70;53.60
43858;DHT22;29507;51.284;5.758;2023-04-19T16:10:57;16.70;53.60
43858;DHT22;29507;51.284;5.758;2023-04-19T16:13:23;16.70;53.50
43858;DHT22;29507;51.284;5.758;2023-04-19T16:15:48;16.60;53.30
43858;DHT22;29507;51.284;5.758;2023-04-19T16:18:14;16.60;53.00
43858;DHT22;29507;51.284;5.758;2023-04-19T16:20:40;16.60;53.90
43858;DHT22;29507;51.284;5.758;2023-04-19T16:23:06;16.60;53.90
43858;DHT22;29507;51.284;5.758;2023-04-19T16:25:32;16.70;53.80
43858;DHT22;29507;51.284;5.758;2023-04-19T16:27:58;16.60;53.30
43858;DHT22;29507;51.284;5.758;2023-04-19T16:30:24;16.60;54.20
43858;DHT22;29507;51.284;5.758;2023-04-19T16:32:57;16.70;52.30